Ahwahnee, California
Current Conditions -  °F | °C
As of 9:53 PM on Thursday 30 Oct 2014 (Local Time) from KMAE Reporting Station
Haze Haze  
Wind Chill: 14°   Ceiling: Unl
Heat Index: 14°   Visibility: 6mi
Dew Point:   Wind: 3mph
Humidity: 70%   Direction: 260°W
Pressure: 29.88"   Gusts: NA
Location:  37.37°N, 119.73°W
Report Text: KMAE 310453Z AUTO 26003KT 6SM HZ CLR 14/09 A2988 RMK AO2 SLP118 T01440089
Loading
Personal Weather Stations






























Interactive Weather Map
Tropical Storm Tracking
New forecast layout! Learn more

10-Day Weather Forecast

Advertisements
Track Severe Weather on mobile